createdAt,value
2018-11-14T00:00:25.645Z,7.87
2018-11-14T00:02:53.074Z,8.27
2018-11-14T00:05:20.344Z,7.97
2018-11-14T00:07:47.624Z,8.30
2018-11-14T00:10:14.922Z,8.27
2018-11-14T00:12:42.209Z,8.03
2018-11-14T00:15:11.760Z,7.80
2018-11-14T00:17:39.032Z,7.40
2018-11-14T00:20:07.071Z,7.30
2018-11-14T00:22:34.365Z,10.07
2018-11-14T00:25:01.653Z,9.43
2018-11-14T00:27:29.040Z,8.90
2018-11-14T00:29:56.453Z,8.97
2018-11-14T00:32:23.735Z,8.23
2018-11-14T00:34:51.049Z,7.73
2018-11-14T00:37:18.603Z,8.13
2018-11-14T00:39:45.884Z,7.93
2018-11-14T00:42:13.168Z,8.43
2018-11-14T00:44:40.424Z,9.40
2018-11-14T00:47:07.671Z,8.33
2018-11-14T00:49:35.008Z,8.20
2018-11-14T00:52:02.441Z,9.10
2018-11-14T00:54:29.710Z,8.57
2018-11-14T00:56:56.992Z,7.77
2018-11-14T00:59:24.233Z,7.63
2018-11-14T01:01:51.502Z,8.07
2018-11-14T01:04:18.821Z,7.73
2018-11-14T01:06:46.047Z,7.77
2018-11-14T01:09:13.425Z,7.80
2018-11-14T01:11:40.686Z,7.90
2018-11-14T01:14:08.894Z,7.13
2018-11-14T01:16:36.349Z,7.30
2018-11-14T01:19:04.252Z,6.93
2018-11-14T01:21:31.587Z,7.57
2018-11-14T01:23:58.821Z,8.17
2018-11-14T01:26:26.195Z,8.33
2018-11-14T01:28:53.461Z,7.17
2018-11-14T01:31:20.704Z,8.80
2018-11-14T01:33:47.955Z,8.33
2018-11-14T01:36:15.260Z,7.27
2018-11-14T01:38:42.496Z,8.27
2018-11-14T01:41:09.858Z,8.47
2018-11-14T01:43:37.028Z,9.63
2018-11-14T01:46:04.560Z,10.77
2018-11-14T01:48:31.820Z,9.20
2018-11-14T01:50:59.085Z,9.57
2018-11-14T01:53:26.362Z,8.97
2018-11-14T01:55:53.693Z,8.37
2018-11-14T01:58:20.961Z,8.50
2018-11-14T02:00:48.192Z,8.10
2018-11-14T02:03:15.541Z,7.77
2018-11-14T02:05:42.821Z,7.63
2018-11-14T02:08:10.183Z,7.17
2018-11-14T02:10:37.436Z,7.20
2018-11-14T02:13:05.068Z,7.93
2018-11-14T02:15:32.333Z,7.30
2018-11-14T02:17:59.611Z,7.20
2018-11-14T02:20:27.125Z,7.20
2018-11-14T02:25:44.730Z,7.03
2018-11-14T02:28:12.012Z,7.73
2018-11-14T02:30:39.254Z,7.47
2018-11-14T02:33:06.552Z,7.67
2018-11-14T02:35:33.844Z,7.50
2018-11-14T02:38:01.077Z,8.10
2018-11-14T02:40:28.390Z,8.00
2018-11-14T02:42:55.636Z,7.80
2018-11-14T02:45:22.869Z,7.57
2018-11-14T02:47:50.192Z,7.37
2018-11-14T02:50:18.103Z,7.33
2018-11-14T02:52:45.332Z,8.07
2018-11-14T02:55:13.559Z,8.57
2018-11-14T02:57:41.061Z,8.13
2018-11-14T03:00:13.641Z,8.20
2018-11-14T03:02:41.273Z,7.60
2018-11-14T03:05:08.604Z,7.60
2018-11-14T03:07:35.869Z,7.27
2018-11-14T03:10:03.426Z,8.00
2018-11-14T03:12:30.795Z,8.37
2018-11-14T03:14:58.029Z,8.27
2018-11-14T03:17:25.287Z,8.43
2018-11-14T03:19:52.570Z,9.20
2018-11-14T03:22:19.893Z,10.00
2018-11-14T03:24:47.150Z,10.57
2018-11-14T03:27:14.484Z,10.20
2018-11-14T03:29:41.842Z,11.20
2018-11-14T03:32:09.092Z,11.33
2018-11-14T03:34:36.493Z,11.50
2018-11-14T03:37:04.143Z,14.27
2018-11-14T03:39:31.420Z,13.80
2018-11-14T03:41:58.716Z,14.77
2018-11-14T03:44:25.972Z,13.80
2018-11-14T03:46:53.285Z,13.90
2018-11-14T03:49:20.560Z,12.20
2018-11-14T03:51:47.877Z,12.87
2018-11-14T03:54:15.197Z,13.87
2018-11-14T03:56:42.440Z,12.90
2018-11-14T03:59:09.789Z,12.53
2018-11-14T04:01:37.153Z,11.53
2018-11-14T04:04:04.708Z,13.23
2018-11-14T04:06:31.968Z,11.50
2018-11-14T04:08:59.579Z,12.27
2018-11-14T04:11:26.916Z,11.37
2018-11-14T04:13:54.204Z,11.23
2018-11-14T04:16:21.485Z,11.60
2018-11-14T04:18:48.817Z,11.00
2018-11-14T04:21:16.140Z,11.17
2018-11-14T04:23:49.924Z,11.40
2018-11-14T04:26:17.452Z,13.03
2018-11-14T04:28:45.108Z,12.80
2018-11-14T04:31:12.367Z,12.20
2018-11-14T04:33:39.873Z,13.57
2018-11-14T04:36:07.144Z,14.53
2018-11-14T04:38:34.401Z,14.70
2018-11-14T04:41:01.644Z,16.07
2018-11-14T04:43:29.215Z,18.27
2018-11-14T04:45:56.528Z,16.97
2018-11-14T04:48:23.941Z,16.33
2018-11-14T04:50:51.221Z,14.37
2018-11-14T04:53:18.522Z,13.33
2018-11-14T04:55:45.805Z,12.27
2018-11-14T04:58:13.053Z,12.30
2018-11-14T05:00:40.556Z,11.23
2018-11-14T05:03:07.837Z,11.00
2018-11-14T05:05:35.079Z,10.73
2018-11-14T05:08:02.454Z,11.20
2018-11-14T05:10:31.717Z,11.20
2018-11-14T05:12:59.012Z,11.40
2018-11-14T05:15:26.241Z,10.00
2018-11-14T05:17:53.965Z,9.97
2018-11-14T05:20:21.583Z,9.50
2018-11-14T05:22:49.210Z,8.67
2018-11-14T05:25:16.639Z,8.80
2018-11-14T05:27:44.144Z,8.73
2018-11-14T05:30:13.155Z,8.97
2018-11-14T05:32:40.916Z,9.00
2018-11-14T05:35:09.124Z,10.40
2018-11-14T05:37:36.904Z,9.70
2018-11-14T05:40:04.906Z,9.70
2018-11-14T05:42:32.196Z,9.57
2018-11-14T05:44:59.421Z,10.90
2018-11-14T05:47:26.699Z,11.23
2018-11-14T05:49:53.936Z,11.27
2018-11-14T05:52:21.165Z,10.03
2018-11-14T05:54:48.486Z,10.40
2018-11-14T05:57:15.674Z,10.60
2018-11-14T05:59:42.917Z,10.97
2018-11-14T06:02:10.181Z,9.90
2018-11-14T06:04:37.448Z,9.80
2018-11-14T06:07:04.881Z,9.67
2018-11-14T06:09:32.068Z,8.40
2018-11-14T06:11:59.406Z,8.90
2018-11-14T06:14:26.652Z,8.80
2018-11-14T06:16:54.173Z,9.87
2018-11-14T06:19:21.509Z,10.00
2018-11-14T06:21:49.004Z,8.90
2018-11-14T06:24:16.254Z,8.67
2018-11-14T06:26:43.506Z,9.07
2018-11-14T06:29:10.800Z,8.63
2018-11-14T06:31:38.065Z,9.40
2018-11-14T06:34:05.570Z,9.97
2018-11-14T06:36:33.092Z,9.67
2018-11-14T06:39:00.349Z,7.57
2018-11-14T06:41:27.896Z,7.10
2018-11-14T06:43:55.161Z,6.80
2018-11-14T06:46:22.392Z,6.90
2018-11-14T06:48:49.624Z,7.27
2018-11-14T06:51:16.923Z,8.60
2018-11-14T06:53:44.177Z,9.07
2018-11-14T06:56:11.516Z,8.57
2018-11-14T06:58:38.895Z,9.40
2018-11-14T07:01:06.125Z,10.03
2018-11-14T07:03:33.431Z,9.83
2018-11-14T07:06:01.057Z,9.27
2018-11-14T07:08:28.127Z,9.93
2018-11-14T07:10:55.438Z,10.80
2018-11-14T07:13:22.634Z,10.90
2018-11-14T07:15:49.891Z,9.97
2018-11-14T07:18:17.148Z,9.03
2018-11-14T07:20:44.761Z,8.97
2018-11-14T07:23:11.983Z,8.43
2018-11-14T07:25:39.230Z,7.67
2018-11-14T07:28:06.585Z,7.60
2018-11-14T07:30:34.360Z,7.37
2018-11-14T07:33:03.844Z,7.07
2018-11-14T07:35:31.140Z,7.13
2018-11-14T07:38:39.767Z,6.00
2018-11-14T07:41:08.833Z,5.93
2018-11-14T07:43:36.717Z,5.53
2018-11-14T07:46:04.241Z,5.20
2018-11-14T07:48:31.712Z,5.00
2018-11-14T07:50:58.987Z,4.50
2018-11-14T07:53:26.461Z,4.80
2018-11-14T07:55:54.084Z,4.80
2018-11-14T07:58:21.344Z,4.80
2018-11-14T08:00:48.632Z,5.20
2018-11-14T08:03:15.877Z,5.07
2018-11-14T08:05:43.148Z,4.57
2018-11-14T08:08:10.441Z,4.63
2018-11-14T08:10:37.695Z,4.80
2018-11-14T08:13:05.099Z,4.10
2018-11-14T08:15:32.393Z,4.30
2018-11-14T08:17:59.693Z,4.67
2018-11-14T08:20:26.949Z,4.13
2018-11-14T08:22:54.425Z,4.30
2018-11-14T08:25:28.845Z,4.50
2018-11-14T08:27:56.071Z,4.60
2018-11-14T08:30:23.318Z,4.37
2018-11-14T08:32:50.596Z,4.23
2018-11-14T08:35:17.860Z,4.73
2018-11-14T08:37:45.220Z,4.60
2018-11-14T08:40:12.556Z,4.47
2018-11-14T08:42:39.812Z,4.40
2018-11-14T08:45:08.664Z,4.13
2018-11-14T08:47:36.362Z,4.20
2018-11-14T08:50:04.394Z,3.97
2018-11-14T08:52:31.648Z,4.53
2018-11-14T08:54:58.884Z,3.77
2018-11-14T08:57:26.113Z,3.90
2018-11-14T08:59:53.368Z,5.60
2018-11-14T09:02:20.628Z,4.20
2018-11-14T09:04:48.143Z,3.90
2018-11-14T09:07:15.376Z,4.17
2018-11-14T09:09:42.612Z,4.23
2018-11-14T09:12:09.889Z,3.93
2018-11-14T09:14:37.628Z,4.00
2018-11-14T09:17:05.117Z,4.00
2018-11-14T09:19:32.343Z,4.30
2018-11-14T09:21:59.576Z,4.10
2018-11-14T09:24:26.824Z,4.10
2018-11-14T09:26:54.120Z,3.90
2018-11-14T09:29:21.384Z,4.40
2018-11-14T09:31:48.624Z,3.90
2018-11-14T09:34:15.868Z,4.20
2018-11-14T09:36:43.116Z,4.37
2018-11-14T09:39:11.756Z,4.07
2018-11-14T09:41:39.056Z,4.30
2018-11-14T09:44:06.303Z,4.47
2018-11-14T09:46:34.191Z,4.33
2018-11-14T09:49:01.419Z,4.63
2018-11-14T09:51:28.641Z,4.50
2018-11-14T09:53:55.855Z,4.27
2018-11-14T09:56:23.126Z,4.60
2018-11-14T09:58:50.346Z,5.13
2018-11-14T10:01:17.603Z,5.30
2018-11-14T10:03:44.891Z,5.17
2018-11-14T10:06:12.175Z,5.00
2018-11-14T10:08:39.372Z,4.70
2018-11-14T10:11:06.568Z,5.03
2018-11-14T10:13:34.024Z,4.67
2018-11-14T10:16:01.276Z,5.20
2018-11-14T10:18:28.587Z,5.67
2018-11-14T10:20:55.764Z,6.50
2018-11-14T10:23:23.000Z,7.13
2018-11-14T10:25:50.256Z,6.50
2018-11-14T10:28:17.581Z,6.77
2018-11-14T10:30:44.896Z,6.40
2018-11-14T10:33:12.084Z,6.50
2018-11-14T10:35:39.336Z,6.40
2018-11-14T10:38:06.619Z,5.90
2018-11-14T10:40:33.935Z,5.57
2018-11-14T10:43:01.286Z,6.37
2018-11-14T10:45:28.439Z,5.90
2018-11-14T10:47:55.717Z,8.77
2018-11-14T10:50:24.220Z,6.27
2018-11-14T10:52:51.491Z,6.63
2018-11-14T10:55:19.104Z,6.57
2018-11-14T10:57:46.391Z,6.37
2018-11-14T11:00:21.314Z,6.17
2018-11-14T11:02:54.176Z,6.40
2018-11-14T11:07:33.028Z,6.70
2018-11-14T11:10:04.448Z,6.77
2018-11-14T11:12:37.342Z,6.50
2018-11-14T11:15:10.853Z,6.53
2018-11-14T11:17:43.708Z,7.07
2018-11-14T11:20:10.960Z,6.60
2018-11-14T11:22:38.176Z,6.67
2018-11-14T11:25:05.987Z,6.40
2018-11-14T11:27:33.259Z,6.50
2018-11-14T11:30:00.480Z,6.53
2018-11-14T11:32:27.712Z,5.83
2018-11-14T11:34:54.991Z,6.50
2018-11-14T11:37:22.200Z,6.57
2018-11-14T11:39:49.492Z,6.40
2018-11-14T11:42:16.776Z,6.40
2018-11-14T11:44:44.016Z,7.00
2018-11-14T11:47:11.379Z,7.17
2018-11-14T11:49:38.635Z,6.77
2018-11-14T11:52:05.860Z,6.97
2018-11-14T11:54:33.100Z,7.17
2018-11-14T11:57:00.349Z,8.87
2018-11-14T11:59:27.569Z,7.37
2018-11-14T12:01:54.832Z,9.00
2018-11-14T12:04:22.121Z,6.80
2018-11-14T12:06:49.353Z,6.77
2018-11-14T12:09:16.624Z,6.50
2018-11-14T12:11:43.872Z,6.83
2018-11-14T12:14:11.396Z,6.33
2018-11-14T12:16:38.664Z,6.60
2018-11-14T12:19:05.988Z,6.33
2018-11-14T12:21:33.437Z,6.23
2018-11-14T12:24:00.678Z,6.87
2018-11-14T12:26:27.940Z,5.80
2018-11-14T12:28:55.181Z,5.93
2018-11-14T12:31:22.527Z,6.23
2018-11-14T12:33:49.872Z,6.07
2018-11-14T12:36:17.105Z,5.93
2018-11-14T12:38:44.870Z,5.90
2018-11-14T12:41:12.258Z,6.10
2018-11-14T12:43:39.541Z,5.93
2018-11-14T12:46:06.818Z,5.67
2018-11-14T12:48:34.319Z,5.80
2018-11-14T12:51:01.568Z,6.07
2018-11-14T12:53:28.961Z,5.65
2018-11-14T12:55:56.221Z,6.03
2018-11-14T12:58:23.568Z,6.13
2018-11-14T13:00:50.797Z,6.53
2018-11-14T13:03:18.059Z,6.63
2018-11-14T13:05:45.353Z,6.47
2018-11-14T13:08:12.593Z,6.00
2018-11-14T13:10:39.843Z,5.87
2018-11-14T13:13:07.140Z,5.73
2018-11-14T13:15:34.380Z,6.17
2018-11-14T13:18:01.629Z,5.97
2018-11-14T13:20:31.909Z,5.70
2018-11-14T13:22:59.212Z,5.70
2018-11-14T13:25:26.509Z,6.08
2018-11-14T13:27:53.828Z,6.13
2018-11-14T13:30:22.439Z,6.30
2018-11-14T13:32:50.368Z,5.97
2018-11-14T13:35:18.662Z,5.90
2018-11-14T13:37:46.699Z,5.53
2018-11-14T13:40:13.964Z,5.70
2018-11-14T13:42:41.516Z,5.83
2018-11-14T13:45:10.255Z,6.17
2018-11-14T13:47:38.158Z,5.90
2018-11-14T13:50:10.891Z,5.70
2018-11-14T13:52:38.148Z,5.58
2018-11-14T13:55:06.557Z,5.93
2018-11-14T13:57:33.917Z,5.30
2018-11-14T14:00:01.191Z,5.63
2018-11-14T14:02:28.436Z,5.60
2018-11-14T14:04:55.734Z,5.67
2018-11-14T14:07:23.109Z,6.17
2018-11-14T14:09:50.436Z,5.73
2018-11-14T14:12:17.708Z,5.60
2018-11-14T14:14:45.040Z,5.67
2018-11-14T14:17:12.259Z,6.33
2018-11-14T14:19:39.537Z,6.30
2018-11-14T14:22:06.906Z,5.70
2018-11-14T14:24:34.072Z,6.00
2018-11-14T14:27:01.373Z,6.03
2018-11-14T14:29:28.669Z,6.33
2018-11-14T14:31:55.992Z,6.50
2018-11-14T14:34:23.220Z,6.33
2018-11-14T14:36:51.400Z,6.60
2018-11-14T14:39:18.624Z,5.83
2018-11-14T14:41:45.895Z,5.97
2018-11-14T14:44:13.132Z,6.23
2018-11-14T14:46:40.443Z,6.80
2018-11-14T14:49:07.743Z,6.22
2018-11-14T14:51:34.965Z,6.50
2018-11-14T14:54:02.295Z,5.90
2018-11-14T14:56:29.610Z,6.08
2018-11-14T14:58:56.935Z,7.03
2018-11-14T15:01:24.262Z,6.20
2018-11-14T15:03:51.589Z,6.47
2018-11-14T15:06:18.855Z,6.60
2018-11-14T15:08:46.125Z,6.80
2018-11-14T15:11:13.447Z,6.40
2018-11-14T15:13:40.705Z,6.63
2018-11-14T15:16:07.998Z,7.20
2018-11-14T15:18:35.551Z,7.43
2018-11-14T15:21:02.793Z,7.03
2018-11-14T15:23:30.137Z,7.93
2018-11-14T16:35:09.177Z,18.73
2018-11-14T16:37:36.475Z,15.97
2018-11-14T16:40:05.200Z,18.60
2018-11-14T16:42:32.472Z,18.23
2018-11-14T16:44:59.679Z,16.57
2018-11-14T16:47:26.927Z,16.13
2018-11-14T16:49:54.225Z,15.73
2018-11-14T16:52:21.392Z,15.73
2018-11-14T16:54:48.636Z,15.67
2018-11-14T16:57:15.849Z,15.07
2018-11-14T16:59:43.119Z,15.37
2018-11-14T17:02:10.408Z,16.10
2018-11-14T17:04:37.664Z,15.27
2018-11-14T17:07:04.973Z,17.27
2018-11-14T17:09:32.243Z,16.23
2018-11-14T17:11:59.491Z,15.30
2018-11-14T17:14:26.854Z,15.97
2018-11-14T17:16:54.155Z,15.13
2018-11-14T17:19:21.424Z,18.40
2018-11-14T17:21:48.676Z,16.10
2018-11-14T17:24:16.024Z,15.23
2018-11-14T17:26:43.320Z,15.53
2018-11-14T17:29:10.646Z,16.37
2018-11-14T17:31:38.001Z,16.33
2018-11-14T17:34:05.308Z,15.87
2018-11-14T17:36:32.647Z,14.90
2018-11-14T17:38:59.964Z,15.20
2018-11-14T17:41:27.247Z,15.30
2018-11-14T17:43:54.451Z,15.20
2018-11-14T17:46:21.679Z,15.57
2018-11-14T17:48:48.987Z,17.10
2018-11-14T17:51:16.307Z,16.23
2018-11-14T17:53:43.594Z,15.73
2018-11-14T17:56:10.893Z,16.23
2018-11-14T17:58:38.145Z,16.10
2018-11-14T18:01:05.435Z,15.73
2018-11-14T18:03:32.666Z,16.00
2018-11-14T18:05:59.916Z,16.60
2018-11-14T18:08:27.439Z,16.97
2018-11-14T18:10:54.709Z,17.63
2018-11-14T18:13:22.012Z,16.50
2018-11-14T18:15:49.276Z,17.67
2018-11-14T18:18:16.504Z,16.40
2018-11-14T18:20:43.865Z,16.87
2018-11-14T18:23:11.122Z,18.23
2018-11-14T18:25:38.408Z,17.17
2018-11-14T18:28:05.736Z,16.87
2018-11-14T18:30:33.052Z,16.53
2018-11-14T18:33:00.938Z,16.90
2018-11-14T18:35:28.404Z,17.00
2018-11-14T18:37:56.752Z,17.17
2018-11-14T18:40:25.715Z,18.50
2018-11-14T18:42:52.964Z,18.50
2018-11-14T18:45:23.813Z,18.23
2018-11-14T18:47:51.200Z,18.40
2018-11-14T18:50:19.187Z,17.77
2018-11-14T18:52:46.968Z,18.70
2018-11-14T18:55:15.696Z,18.30
2018-11-14T18:57:43.207Z,19.67
2018-11-14T19:00:14.413Z,19.07
2018-11-14T19:02:42.504Z,18.57
2018-11-14T19:05:10.533Z,18.93
2018-11-14T19:07:38.998Z,18.97
2018-11-14T19:10:08.979Z,17.97
2018-11-14T19:12:36.454Z,18.67
2018-11-14T19:15:06.601Z,18.23
2018-11-14T19:17:33.900Z,18.40
2018-11-14T19:20:01.361Z,18.87
2018-11-14T19:22:28.732Z,17.90
2018-11-14T19:24:56.136Z,18.67
2018-11-14T19:27:23.430Z,17.10
2018-11-14T19:29:50.737Z,17.33
2018-11-14T19:32:18.239Z,17.63
2018-11-14T19:34:45.546Z,18.00
2018-11-14T19:37:13.003Z,18.40
2018-11-14T19:39:40.303Z,17.30
2018-11-14T19:42:07.845Z,17.50
2018-11-14T19:44:35.642Z,17.30
2018-11-14T19:47:02.928Z,18.60
2018-11-14T19:49:30.264Z,18.13
2018-11-14T19:51:57.664Z,18.90
2018-11-14T19:54:25.133Z,18.20
2018-11-14T19:56:52.458Z,18.20
2018-11-14T19:59:19.828Z,17.67
2018-11-14T20:01:47.132Z,18.07
2018-11-14T20:04:14.376Z,18.67
2018-11-14T20:06:41.628Z,18.10
2018-11-14T20:09:09.867Z,18.43
2018-11-14T20:11:37.221Z,18.80
2018-11-14T20:14:04.657Z,18.30
2018-11-14T20:16:32.020Z,19.40
2018-11-14T20:18:59.406Z,19.23
2018-11-14T20:21:26.712Z,19.30
2018-11-14T20:23:54.148Z,18.03
2018-11-14T20:26:21.813Z,17.27
2018-11-14T20:28:49.079Z,17.53
2018-11-14T20:31:16.510Z,18.17
2018-11-14T20:33:43.849Z,17.70
2018-11-14T20:36:11.187Z,18.07
2018-11-14T20:38:38.661Z,17.83
2018-11-14T20:41:05.921Z,18.30
2018-11-14T20:43:33.836Z,17.87
2018-11-14T20:46:02.046Z,17.10
2018-11-14T20:48:29.368Z,17.00
2018-11-14T20:50:56.757Z,16.83
2018-11-14T20:53:24.116Z,16.30
2018-11-14T20:55:51.515Z,17.37
2018-11-14T20:58:18.703Z,17.03
2018-11-14T21:00:46.616Z,16.10
2018-11-14T21:03:14.088Z,17.93
2018-11-14T21:05:41.415Z,16.70
2018-11-14T21:08:09.182Z,16.03
2018-11-14T21:10:36.620Z,16.17
2018-11-14T21:13:04.753Z,15.60
2018-11-14T21:15:35.201Z,15.57
2018-11-14T21:20:40.534Z,15.57
2018-11-14T21:23:07.881Z,15.23
2018-11-14T21:25:35.808Z,14.83
2018-11-14T21:28:03.577Z,15.90
2018-11-14T21:30:31.197Z,14.50
2018-11-14T21:32:58.673Z,16.00
2018-11-14T21:35:28.803Z,14.80
2018-11-14T21:37:57.680Z,15.20
2018-11-14T21:40:24.978Z,14.20
2018-11-14T21:42:52.305Z,14.87
2018-11-14T21:45:21.188Z,15.20
2018-11-14T21:47:54.363Z,15.90
2018-11-14T21:50:22.809Z,15.57
2018-11-14T21:52:50.236Z,15.83
2018-11-14T21:55:17.928Z,14.83
2018-11-14T21:57:45.451Z,15.10
2018-11-14T22:00:16.537Z,15.20
2018-11-14T22:02:45.293Z,14.37
2018-11-14T22:05:12.699Z,14.33
2018-11-14T22:07:40.153Z,15.33
2018-11-14T22:10:09.836Z,15.53
2018-11-14T22:12:37.293Z,14.80
2018-11-14T22:15:05.307Z,15.13
2018-11-14T22:17:32.916Z,15.13
2018-11-14T22:20:00.249Z,14.40
2018-11-14T22:22:27.562Z,15.80
2018-11-14T22:24:54.996Z,15.17
2018-11-14T22:27:22.290Z,14.83
2018-11-14T22:29:49.606Z,13.90
2018-11-14T22:32:17.324Z,13.93
2018-11-14T22:34:44.848Z,14.20
2018-11-14T22:37:12.244Z,14.70
2018-11-14T22:39:39.582Z,14.03
2018-11-14T22:42:07.575Z,14.00
2018-11-14T22:44:34.838Z,14.17
2018-11-14T22:47:03.424Z,13.77
2018-11-14T22:49:30.821Z,14.47
2018-11-14T22:51:58.913Z,15.20
2018-11-14T22:54:26.464Z,14.20
2018-11-14T22:56:53.759Z,14.27
2018-11-14T22:59:21.176Z,14.40
2018-11-14T23:01:48.557Z,14.00
2018-11-14T23:04:15.887Z,14.20
2018-11-14T23:06:43.220Z,14.93
2018-11-14T23:09:12.095Z,13.27
2018-11-14T23:11:39.594Z,15.40
2018-11-14T23:14:06.831Z,13.87
2018-11-14T23:16:34.231Z,15.67
2018-11-14T23:19:01.525Z,13.77
2018-11-14T23:21:28.765Z,14.70
2018-11-14T23:23:56.110Z,14.97
2018-11-14T23:26:23.371Z,14.97
2018-11-14T23:28:50.669Z,14.80
2018-11-14T23:31:17.970Z,14.83
2018-11-14T23:33:45.212Z,14.90
2018-11-14T23:36:12.472Z,15.50
2018-11-14T23:38:39.778Z,14.80
2018-11-14T23:41:07.044Z,14.73
2018-11-14T23:43:34.340Z,14.93
2018-11-14T23:46:01.609Z,15.70
2018-11-14T23:48:28.891Z,15.40
2018-11-14T23:50:56.196Z,14.23
2018-11-14T23:53:23.492Z,16.30
2018-11-14T23:55:50.944Z,15.37
2018-11-14T23:58:18.372Z,15.07
